Time;durP1;ratioP1;P1;durP2;ratioP2;P2;SDS_P1;SDS_P2;PMS_P1;PMS_P2;Temp;Humidity;BMP_temperature;BMP_pressure;BME280_temperature;BME280_humidity;BME280_pressure;Samples;Min_cycle;Max_cycle;Signal;HPM_P1;HPM_P2
2024/01/24 00:01:14;;;;;;;13.38;4.45;;;12.90;99.90;;;;;;5015780;28;20040;-81
2024/01/24 00:03:39;;;;;;;13.10;4.07;;;17.20;99.90;;;;;;5088223;28;20547;-78
2024/01/24 00:06:06;;;;;;;11.82;4.10;;;16.00;99.90;;;;;;5068623;28;20449;-76
2024/01/24 00:08:33;;;;;;;12.27;4.10;;;16.50;99.90;;;;;;5054777;28;20556;-79
2024/01/24 00:10:58;;;;;;;13.43;3.75;;;16.50;99.90;;;;;;5048766;28;20440;-77
2024/01/24 00:13:24;;;;;;;13.80;4.20;;;16.50;99.90;;;;;;5019744;28;20045;-81
2024/01/24 00:15:50;;;;;;;15.13;4.82;;;16.70;99.90;;;;;;5055578;28;20060;-79
2024/01/24 00:18:16;;;;;;;16.10;4.57;;;12.90;99.90;;;;;;5049320;28;20036;-78
2024/01/24 00:20:41;;;;;;;13.20;4.30;;;16.70;99.90;;;;;;5074384;28;20067;-75
2024/01/24 00:23:07;;;;;;;12.90;3.83;;;14.30;99.90;;;;;;5055702;28;20048;-75
2024/01/24 00:25:32;;;;;;;17.10;4.50;;;14.70;99.90;;;;;;5058476;28;20048;-77
2024/01/24 00:27:58;;;;;;;16.15;5.22;;;13.90;99.90;;;;;;5057482;28;20040;-77
2024/01/24 00:30:24;;;;;;;14.85;4.65;;;17.30;99.90;;;;;;5058499;28;20119;-76
2024/01/24 00:32:49;;;;;;;13.82;4.47;;;13.90;99.90;;;;;;5058228;28;20086;-78
2024/01/24 00:35:15;;;;;;;12.85;4.55;;;14.70;99.90;;;;;;5040841;28;20056;-80
2024/01/24 00:37:41;;;;;;;17.42;4.97;;;16.70;99.90;;;;;;5056678;28;20105;-75
2024/01/24 00:40:07;;;;;;;21.25;5.40;;;16.00;99.90;;;;;;5038298;28;20448;-79
2024/01/24 00:42:33;;;;;;;19.77;4.95;;;13.20;99.90;;;;;;5054809;28;20041;-75
2024/01/24 00:44:59;;;;;;;17.55;4.95;;;14.40;99.90;;;;;;5067599;28;20412;-79
2024/01/24 00:47:24;;;;;;;18.90;4.88;;;17.20;99.90;;;;;;5041514;28;20036;-78
2024/01/24 00:49:50;;;;;;;17.63;4.32;;;14.40;99.90;;;;;;5053023;28;20032;-78
2024/01/24 00:52:16;;;;;;;17.42;4.47;;;13.40;99.90;;;;;;5038024;28;20168;-79
2024/01/24 00:54:41;;;;;;;19.25;4.40;;;17.40;99.90;;;;;;5045743;28;20075;-78
2024/01/24 00:57:07;;;;;;;15.20;3.90;;;16.20;99.90;;;;;;5074788;28;20047;-78
2024/01/24 00:59:33;;;;;;;17.98;4.47;;;17.20;99.90;;;;;;5073960;28;20032;-76
2024/01/24 01:01:59;;;;;;;16.08;4.22;;;17.30;99.90;;;;;;5074672;28;20059;-77
2024/01/24 01:04:24;;;;;;;22.13;4.53;;;13.90;99.90;;;;;;5074965;28;20049;-77
2024/01/24 01:06:50;;;;;;;20.92;4.28;;;13.40;99.90;;;;;;5074289;28;20041;-81
2024/01/24 01:09:16;;;;;;;17.02;4.43;;;14.00;99.90;;;;;;5070165;28;20037;-79
2024/01/24 01:11:41;;;;;;;22.98;4.95;;;12.90;99.90;;;;;;5057988;28;20186;-80
2024/01/24 01:14:07;;;;;;;15.88;4.28;;;17.10;99.90;;;;;;5041302;28;20045;-78
2024/01/24 01:16:33;;;;;;;17.83;4.30;;;17.20;99.90;;;;;;5074925;28;20032;-76
2024/01/24 01:18:58;;;;;;;17.60;4.25;;;17.20;99.90;;;;;;5056600;28;20131;-78
2024/01/24 01:21:24;;;;;;;15.52;4.07;;;15.20;99.90;;;;;;5064958;28;20546;-78
2024/01/24 01:23:50;;;;;;;14.68;3.63;;;13.30;99.90;;;;;;5057751;28;20135;-77
2024/01/24 01:26:15;;;;;;;18.17;4.13;;;16.40;99.90;;;;;;5071284;28;20131;-81
2024/01/24 01:28:41;;;;;;;14.07;3.70;;;15.80;99.90;;;;;;5071732;28;20055;-79
2024/01/24 01:31:07;;;;;;;16.90;3.75;;;13.20;99.90;;;;;;5037465;28;20048;-84
2024/01/24 01:33:32;;;;;;;14.80;3.72;;;13.40;99.90;;;;;;5051270;28;20037;-79
2024/01/24 01:35:58;;;;;;;13.05;3.75;;;13.30;99.90;;;;;;5025565;28;20075;-77
2024/01/24 01:38:24;;;;;;;21.80;3.92;;;17.00;99.90;;;;;;5070994;28;20090;-78
2024/01/24 01:40:49;;;;;;;16.75;3.20;;;15.40;99.90;;;;;;5060585;28;20047;-77
2024/01/24 01:43:15;;;;;;;10.23;3.00;;;13.10;99.90;;;;;;5027115;28;20076;-78
2024/01/24 01:45:42;;;;;;;14.07;3.50;;;13.40;99.90;;;;;;5054394;28;20782;-77
2024/01/24 01:48:11;;;;;;;10.55;2.97;;;16.70;99.90;;;;;;5053600;28;20041;-78
2024/01/24 01:50:38;;;;;;;10.20;3.28;;;17.00;99.90;;;;;;5047734;28;20045;-77
2024/01/24 01:53:05;;;;;;;12.10;3.03;;;13.10;99.90;;;;;;5034078;28;20484;-76
2024/01/24 01:55:33;;;;;;;15.48;3.15;;;15.40;99.90;;;;;;5059856;28;20055;-81
2024/01/24 01:58:00;;;;;;;7.68;3.40;;;13.10;99.90;;;;;;5054021;28;20072;-80
2024/01/24 02:00:27;;;;;;;8.40;2.78;;;16.20;99.90;;;;;;5076895;28;20396;-77
2024/01/24 02:02:53;;;;;;;7.95;2.40;;;16.30;99.90;;;;;;5050719;28;20390;-79
2024/01/24 02:05:19;;;;;;;14.82;3.40;;;15.30;99.90;;;;;;5070867;28;20124;-80
2024/01/24 02:07:45;;;;;;;13.20;3.30;;;17.50;99.90;;;;;;5054057;28;20048;-77
2024/01/24 02:10:12;;;;;;;8.13;2.58;;;17.40;99.90;;;;;;5053600;28;20044;-79
2024/01/24 02:12:38;;;;;;;10.27;2.67;;;17.60;99.90;;;;;;5053488;28;20044;-79
2024/01/24 02:15:04;;;;;;;9.35;3.05;;;13.80;99.90;;;;;;5050200;28;20113;-77
2024/01/24 02:17:29;;;;;;;9.63;2.70;;;17.50;99.90;;;;;;5050967;28;20150;-81
2024/01/24 02:19:55;;;;;;;12.45;3.20;;;13.30;99.90;;;;;;5070541;28;20123;-79
2024/01/24 02:22:21;;;;;;;10.95;2.50;;;14.70;99.90;;;;;;5049085;28;20044;-79
2024/01/24 02:24:47;;;;;;;14.98;3.55;;;14.00;99.90;;;;;;5078125;28;20446;-76
2024/01/24 02:27:13;;;;;;;10.15;2.85;;;17.40;99.90;;;;;;5053673;28;20032;-76
2024/01/24 02:29:39;;;;;;;10.68;3.10;;;16.00;99.90;;;;;;5057474;28;20036;-80
2024/01/24 02:32:05;;;;;;;8.95;2.70;;;13.30;99.90;;;;;;5062715;28;20831;-77
2024/01/24 02:34:31;;;;;;;10.43;3.13;;;15.50;99.90;;;;;;5053090;28;20139;-81
2024/01/24 02:36:57;;;;;;;8.05;2.65;;;14.60;99.90;;;;;;5069532;28;20040;-77
2024/01/24 02:39:22;;;;;;;12.75;3.50;;;16.10;99.90;;;;;;5053243;28;20374;-78
2024/01/24 02:41:48;;;;;;;9.20;2.90;;;14.30;99.90;;;;;;5068475;28;20090;-77
2024/01/24 02:44:14;;;;;;;10.60;2.90;;;16.60;99.90;;;;;;5037549;28;20094;-78
2024/01/24 02:46:39;;;;;;;8.77;2.65;;;13.30;99.90;;;;;;5053281;28;20058;-77
2024/01/24 02:49:05;;;;;;;10.43;2.90;;;16.20;99.90;;;;;;5068487;28;20064;-82
2024/01/24 02:51:31;;;;;;;8.68;2.60;;;14.50;99.90;;;;;;5033640;28;20060;-77
2024/01/24 02:53:56;;;;;;;12.18;2.70;;;16.90;99.90;;;;;;5049663;28;20041;-76
2024/01/24 02:56:22;;;;;;;10.38;2.80;;;15.90;99.90;;;;;;5050016;28;20087;-80
2024/01/24 02:58:48;;;;;;;12.48;2.72;;;16.10;99.90;;;;;;5033296;28;20037;-81
2024/01/24 03:01:15;;;;;;;11.38;3.05;;;16.70;99.90;;;;;;5059625;28;20123;-83
2024/01/24 03:03:46;;;;;;;12.57;2.92;;;14.00;99.90;;;;;;5081150;28;20051;-78
2024/01/24 03:06:11;;;;;;;11.32;2.95;;;15.20;99.90;;;;;;5057041;28;20426;-78
2024/01/24 03:08:51;;;;;;;14.27;3.17;;;15.40;99.90;;;;;;5081576;28;20040;-78
2024/01/24 03:11:17;;;;;;;11.05;3.55;;;15.90;99.90;;;;;;5030742;28;20120;-82
2024/01/24 03:13:43;;;;;;;14.57;3.92;;;15.10;99.90;;;;;;5083058;28;20128;-78
2024/01/24 03:16:09;;;;;;;11.15;3.83;;;14.20;99.90;;;;;;5058385;28;20040;-81
2024/01/24 03:18:38;;;;;;;14.48;3.72;;;14.30;99.90;;;;;;5052639;28;20691;-81
2024/01/24 03:21:09;;;;;;;10.93;3.20;;;15.40;99.90;;;;;;5066013;28;20059;-81
2024/01/24 03:23:38;;;;;;;12.27;3.08;;;14.20;99.90;;;;;;5051593;28;20041;-80
2024/01/24 03:26:06;;;;;;;18.25;3.72;;;16.30;99.90;;;;;;5052011;28;20036;-77
2024/01/24 03:28:32;;;;;;;14.50;3.83;;;14.10;99.90;;;;;;5068994;28;20052;-80
2024/01/24 03:30:59;;;;;;;14.00;3.67;;;13.40;99.90;;;;;;5049058;28;20485;-83
2024/01/24 03:33:24;;;;;;;15.48;4.15;;;15.90;99.90;;;;;;5089525;28;20051;-78
2024/01/24 03:35:50;;;;;;;17.73;4.45;;;14.80;99.90;;;;;;5074870;28;20385;-78
2024/01/24 03:38:16;;;;;;;15.75;3.90;;;14.40;99.90;;;;;;5054083;28;20040;-77
2024/01/24 03:40:42;;;;;;;16.63;4.40;;;14.90;99.90;;;;;;5054548;28;20472;-78
2024/01/24 03:43:10;;;;;;;20.25;4.32;;;13.30;99.90;;;;;;5071014;28;20080;-77
2024/01/24 03:45:37;;;;;;;15.32;3.85;;;13.30;99.90;;;;;;5076993;28;20052;-81
2024/01/24 03:48:04;;;;;;;17.70;5.07;;;15.60;99.90;;;;;;5068262;28;20040;-75
2024/01/24 03:50:29;;;;;;;19.65;4.85;;;13.40;99.90;;;;;;5051311;28;20120;-80
2024/01/24 03:52:55;;;;;;;21.20;4.43;;;15.50;99.90;;;;;;5050397;28;20151;-78
2024/01/24 03:55:21;;;;;;;17.83;4.75;;;13.70;99.90;;;;;;5051093;28;20445;-80
2024/01/24 03:57:46;;;;;;;18.63;4.80;;;13.90;99.90;;;;;;5068330;28;20393;-75
2024/01/24 04:00:13;;;;;;;19.13;5.25;;;13.50;99.90;;;;;;5034289;28;20047;-77
2024/01/24 04:02:40;;;;;;;20.60;4.00;;;15.00;99.90;;;;;;5047112;28;20041;-76
2024/01/24 04:05:06;;;;;;;19.77;4.22;;;15.10;99.90;;;;;;5074902;28;20043;-79
2024/01/24 04:07:32;;;;;;;20.60;5.20;;;14.00;99.90;;;;;;5074217;28;20045;-80
2024/01/24 04:09:59;;;;;;;18.20;4.55;;;15.80;99.90;;;;;;5051592;28;20079;-76
2024/01/24 04:12:25;;;;;;;18.80;4.72;;;13.60;99.90;;;;;;5065240;28;20125;-74
2024/01/24 04:14:50;;;;;;;19.30;5.18;;;15.10;99.90;;;;;;5066729;28;20455;-76
2024/01/24 04:17:16;;;;;;;19.67;4.50;;;15.20;99.90;;;;;;5050887;28;20048;-80
2024/01/24 04:19:42;;;;;;;20.35;4.65;;;14.50;99.90;;;;;;5034575;28;20060;-77
2024/01/24 04:22:08;;;;;;;18.10;5.43;;;15.90;99.90;;;;;;5067355;28;20036;-77
2024/01/24 04:24:34;;;;;;;18.98;4.70;;;15.40;99.90;;;;;;5067065;28;20403;-78
2024/01/24 04:27:00;;;;;;;22.65;5.82;;;15.60;99.90;;;;;;5068036;28;20166;-78
2024/01/24 04:29:26;;;;;;;20.40;4.80;;;14.40;99.90;;;;;;5067083;28;20047;-78
2024/01/24 04:31:52;;;;;;;21.48;5.72;;;13.20;99.90;;;;;;5050967;28;20048;-77
2024/01/24 04:34:18;;;;;;;23.08;6.00;;;15.40;99.90;;;;;;5062795;28;20048;-78
2024/01/24 04:36:44;;;;;;;28.95;6.47;;;13.70;99.90;;;;;;5067500;28;20043;-82
2024/01/24 04:39:10;;;;;;;20.45;6.00;;;13.40;99.90;;;;;;5050902;28;20059;-80
2024/01/24 04:41:36;;;;;;;23.25;5.75;;;14.00;99.90;;;;;;5033329;28;20045;-78
2024/01/24 04:44:02;;;;;;;28.52;6.07;;;13.40;99.90;;;;;;5050735;28;20392;-79
2024/01/24 04:46:28;;;;;;;23.48;5.90;;;13.50;99.90;;;;;;5033974;28;20093;-77
2024/01/24 04:48:54;;;;;;;23.60;5.68;;;14.90;99.90;;;;;;5067416;28;20044;-81
2024/01/24 04:51:20;;;;;;;25.33;6.15;;;14.60;99.90;;;;;;5067267;28;20116;-77
2024/01/24 04:53:47;;;;;;;26.42;6.60;;;13.40;99.90;;;;;;5066491;28;20076;-80
2024/01/24 04:56:13;;;;;;;28.30;6.57;;;13.90;99.90;;;;;;5050749;28;20121;-79
2024/01/24 04:58:40;;;;;;;23.58;6.15;;;15.00;99.90;;;;;;5067385;28;20086;-76
2024/01/24 05:01:06;;;;;;;27.65;6.60;;;13.90;99.90;;;;;;5068457;28;20040;-78
2024/01/24 05:03:32;;;;;;;28.70;6.47;;;13.90;99.90;;;;;;5054449;28;20064;-76
2024/01/24 05:05:58;;;;;;;27.65;7.00;;;13.60;99.90;;;;;;5052181;28;20036;-75
2024/01/24 05:08:23;;;;;;;35.15;7.82;;;14.50;99.90;;;;;;5071035;28;20452;-80
2024/01/24 05:10:50;;;;;;;30.02;6.75;;;13.40;99.90;;;;;;5071178;28;20123;-77
2024/01/24 05:13:16;;;;;;;28.05;5.90;;;13.70;99.90;;;;;;5070564;28;20105;-74
2024/01/24 05:15:41;;;;;;;27.45;6.93;;;14.00;99.90;;;;;;5053444;28;20075;-79
2024/01/24 05:18:07;;;;;;;30.52;7.22;;;13.70;99.90;;;;;;5054528;28;20121;-76
2024/01/24 05:20:33;;;;;;;37.20;8.07;;;14.70;99.90;;;;;;5054203;28;20048;-81
2024/01/24 05:22:59;;;;;;;27.65;6.90;;;14.50;99.90;;;;;;5054460;28;20476;-79
2024/01/24 05:25:24;;;;;;;34.13;7.57;;;13.60;99.90;;;;;;5069231;28;20562;-80
2024/01/24 05:27:50;;;;;;;24.38;7.22;;;14.20;99.90;;;;;;5054324;28;20033;-76
2024/01/24 05:30:16;;;;;;;26.27;7.82;;;14.80;99.90;;;;;;5070507;28;20044;-77
2024/01/24 05:32:41;;;;;;;27.77;6.57;;;14.50;99.90;;;;;;5073845;28;20033;-79
2024/01/24 05:35:08;;;;;;;30.42;7.90;;;14.70;99.90;;;;;;5051615;28;20725;-83
2024/01/24 05:37:34;;;;;;;29.20;6.75;;;13.70;99.90;;;;;;5096813;28;20032;-79
2024/01/24 05:39:59;;;;;;;35.28;6.95;;;14.30;99.90;;;;;;5070585;28;20090;-76
2024/01/24 05:42:25;;;;;;;27.75;7.75;;;13.90;99.90;;;;;;5053561;28;20521;-76
2024/01/24 05:44:51;;;;;;;31.00;7.10;;;14.50;99.90;;;;;;5069991;28;20048;-78
2024/01/24 05:47:16;;;;;;;31.50;8.65;;;13.40;99.90;;;;;;5049401;28;20039;-79
2024/01/24 05:49:42;;;;;;;30.17;7.88;;;13.70;99.90;;;;;;5055999;28;20040;-81
2024/01/24 05:52:08;;;;;;;29.00;8.35;;;13.70;99.90;;;;;;5053568;28;20382;-83
2024/01/24 05:54:33;;;;;;;35.30;8.45;;;14.60;99.90;;;;;;5053310;28;20040;-78
2024/01/24 05:56:59;;;;;;;29.20;6.93;;;14.40;99.90;;;;;;5059616;28;20033;-78
2024/01/24 05:59:25;;;;;;;32.03;8.27;;;13.80;99.90;;;;;;5052878;28;20040;-78
2024/01/24 06:01:51;;;;;;;31.67;8.77;;;14.30;99.90;;;;;;5053142;28;20588;-79
2024/01/24 06:04:16;;;;;;;31.85;8.00;;;14.40;99.90;;;;;;5072401;28;20040;-81
2024/01/24 06:06:42;;;;;;;39.00;8.27;;;14.20;99.90;;;;;;5049926;28;20145;-75
2024/01/24 06:09:08;;;;;;;28.63;8.05;;;13.80;99.90;;;;;;5053303;28;20479;-77
2024/01/24 06:11:33;;;;;;;31.98;6.88;;;14.20;99.90;;;;;;5069546;28;20127;-80
2024/01/24 06:13:59;;;;;;;31.88;7.68;;;14.00;99.90;;;;;;5053654;28;20082;-76
2024/01/24 06:16:25;;;;;;;39.20;8.25;;;13.50;99.90;;;;;;5067602;28;20047;-77
2024/01/24 06:18:50;;;;;;;33.70;8.68;;;13.60;99.90;;;;;;5069314;28;20037;-79
2024/01/24 06:21:16;;;;;;;28.90;7.70;;;13.70;99.90;;;;;;5046643;28;20116;-79
2024/01/24 06:23:42;;;;;;;36.42;8.52;;;14.00;99.90;;;;;;5052849;28;20040;-80
2024/01/24 06:26:07;;;;;;;30.98;8.90;;;14.00;99.90;;;;;;5055863;28;20060;-78
2024/01/24 06:28:34;;;;;;;30.85;7.75;;;13.90;99.90;;;;;;5051004;28;20056;-77
2024/01/24 06:31:00;;;;;;;29.52;7.30;;;13.60;99.90;;;;;;5069302;28;20079;-75
2024/01/24 06:33:26;;;;;;;38.80;9.52;;;13.60;99.90;;;;;;5068862;28;20040;-76
2024/01/24 06:35:51;;;;;;;29.08;8.38;;;13.40;99.90;;;;;;5054835;28;20473;-74
2024/01/24 06:38:17;;;;;;;31.90;9.23;;;13.90;99.90;;;;;;5046292;28;20055;-77
2024/01/24 06:40:43;;;;;;;37.65;9.32;;;13.60;99.90;;;;;;5041706;28;20090;-75
2024/01/24 06:43:11;;;;;;;39.25;8.65;;;13.70;99.90;;;;;;5069852;28;20044;-76
2024/01/24 06:45:36;;;;;;;32.97;8.57;;;13.70;99.90;;;;;;5051852;28;20127;-79
2024/01/24 06:48:02;;;;;;;34.45;8.95;;;13.70;99.90;;;;;;5051270;28;20628;-81
2024/01/24 06:50:29;;;;;;;32.38;9.23;;;13.60;99.90;;;;;;5062156;28;20099;-77
2024/01/24 06:52:55;;;;;;;28.98;8.02;;;13.20;99.90;;;;;;5069391;28;20037;-71
2024/01/24 06:55:24;;;;;;;33.85;9.20;;;13.60;99.90;;;;;;5067293;28;20036;-79
2024/01/24 06:57:49;;;;;;;33.85;7.85;;;13.30;99.90;;;;;;5049010;28;20040;-77
2024/01/24 07:00:15;;;;;;;34.63;8.38;;;13.60;99.90;;;;;;5068678;28;20064;-76
2024/01/24 07:02:41;;;;;;;37.75;9.63;;;13.60;99.90;;;;;;5051756;28;20059;-82
2024/01/24 07:05:07;;;;;;;39.10;9.15;;;13.20;97.40;;;;;;5068238;28;20048;-76
2024/01/24 07:07:33;;;;;;;31.85;8.75;;;13.30;84.20;;;;;;5033617;28;20048;-79
2024/01/24 07:09:58;;;;;;;35.85;9.02;;;13.40;97.00;;;;;;5067801;28;20131;-77
2024/01/24 07:12:24;;;;;;;38.95;9.60;;;13.30;84.90;;;;;;5051784;28;20496;-80
2024/01/24 07:14:50;;;;;;;44.58;9.15;;;13.30;91.40;;;;;;5068388;28;20064;-76
2024/01/24 07:17:15;;;;;;;29.08;7.60;;;13.20;95.40;;;;;;5052332;28;20040;-78
2024/01/24 07:19:41;;;;;;;37.97;9.48;;;13.40;25.90;;;;;;5032763;28;20040;-78
2024/01/24 07:22:07;;;;;;;25.38;7.50;;;13.60;31.10;;;;;;5065848;28;20037;-77
2024/01/24 07:24:32;;;;;;;30.95;7.47;;;13.40;42.90;;;;;;5050677;28;20036;-79
2024/01/24 07:26:58;;;;;;;27.80;7.22;;;13.40;39.90;;;;;;5067801;28;20051;-78
2024/01/24 07:29:24;;;;;;;34.15;8.15;;;13.30;25.30;;;;;;5045640;28;20052;-76
2024/01/24 07:31:50;;;;;;;35.28;8.52;;;13.60;28.80;;;;;;5070319;28;20041;-77
2024/01/24 07:34:16;;;;;;;30.30;7.55;;;13.40;7.30;;;;;;5051078;28;20388;-76
2024/01/24 07:36:42;;;;;;;26.52;7.43;;;13.40;28.00;;;;;;5050606;28;20079;-77
2024/01/24 07:39:07;;;;;;;28.20;8.52;;;13.10;52.50;;;;;;5069127;28;20032;-79
2024/01/24 07:41:34;;;;;;;32.63;8.55;;;13.40;43.70;;;;;;5066671;28;20449;-77
2024/01/24 07:44:00;;;;;;;33.95;7.47;;;13.30;52.00;;;;;;5067386;28;20044;-78
2024/01/24 07:46:27;;;;;;;29.17;7.72;;;13.30;63.50;;;;;;5051765;28;20077;-78
2024/01/24 07:48:53;;;;;;;30.20;9.02;;;13.20;55.80;;;;;;5046834;28;20119;-79
2024/01/24 07:51:20;;;;;;;26.30;7.45;;;13.50;64.50;;;;;;5032697;28;20128;-75
2024/01/24 07:53:47;;;;;;;27.88;7.43;;;13.10;84.50;;;;;;5035907;28;20095;-79
2024/01/24 07:56:14;;;;;;;26.98;7.72;;;13.30;92.30;;;;;;5041741;28;20119;-77
2024/01/24 07:58:40;;;;;;;33.35;8.35;;;13.40;94.70;;;;;;5056745;28;20036;-78
2024/01/24 08:01:08;;;;;;;37.15;8.60;;;13.30;99.90;;;;;;5044055;28;20032;-79
2024/01/24 08:03:34;;;;;;;31.45;8.35;;;13.50;99.90;;;;;;5044226;28;20047;-77
2024/01/24 08:06:00;;;;;;;35.88;8.27;;;13.50;99.90;;;;;;5057318;28;20127;-77
2024/01/24 08:08:26;;;;;;;33.38;8.35;;;13.40;99.90;;;;;;5064410;28;20454;-77
2024/01/24 08:10:52;;;;;;;33.60;8.60;;;13.20;99.90;;;;;;5048890;28;20068;-79
2024/01/24 08:13:19;;;;;;;34.65;8.70;;;13.50;99.90;;;;;;5059326;28;20025;-75
2024/01/24 08:15:48;;;;;;;31.25;8.60;;;13.30;99.90;;;;;;5051752;28;20373;-78
2024/01/24 08:18:14;;;;;;;32.00;8.10;;;13.10;99.90;;;;;;5050451;28;20043;-79
2024/01/24 08:20:40;;;;;;;30.92;7.90;;;13.20;99.90;;;;;;5057250;28;20041;-77
2024/01/24 08:23:06;;;;;;;33.70;8.15;;;13.30;99.90;;;;;;5043150;28;20381;-75
2024/01/24 08:25:31;;;;;;;34.30;8.80;;;13.40;99.90;;;;;;5051143;28;20036;-79
2024/01/24 08:27:57;;;;;;;31.85;8.00;;;13.40;99.90;;;;;;5038439;28;20079;-77
2024/01/24 08:30:23;;;;;;;37.88;8.18;;;13.60;99.90;;;;;;5067813;28;20047;-75
2024/01/24 08:32:50;;;;;;;32.35;8.57;;;13.60;99.90;;;;;;5063212;28;20029;-78
2024/01/24 08:35:15;;;;;;;36.35;9.38;;;13.20;99.90;;;;;;5067521;28;20072;-77
2024/01/24 08:37:42;;;;;;;29.58;8.35;;;13.20;99.90;;;;;;5052902;28;20075;-76
2024/01/24 08:40:10;;;;;;;30.80;7.35;;;13.10;99.90;;;;;;5048246;28;20061;-77
2024/01/24 08:42:36;;;;;;;30.52;8.00;;;13.20;99.90;;;;;;5041153;28;20044;-76
2024/01/24 08:45:02;;;;;;;34.63;8.80;;;13.30;99.90;;;;;;5047575;28;20037;-77
2024/01/24 08:47:28;;;;;;;28.73;8.10;;;13.20;99.90;;;;;;5044333;28;20028;-76
2024/01/24 08:49:56;;;;;;;28.92;8.40;;;13.10;99.90;;;;;;5042006;28;20066;-76
2024/01/24 08:52:22;;;;;;;33.22;9.18;;;13.10;99.90;;;;;;5065678;28;20052;-75
2024/01/24 08:54:48;;;;;;;29.10;8.02;;;13.30;90.80;;;;;;5037277;28;20040;-80
2024/01/24 08:57:14;;;;;;;31.27;8.18;;;13.30;83.30;;;;;;5058515;28;20055;-75
2024/01/24 08:59:40;;;;;;;35.55;9.35;;;13.70;77.10;;;;;;5063734;28;20644;-77
2024/01/24 09:02:07;;;;;;;27.38;8.00;;;13.50;78.90;;;;;;5053120;28;20056;-80
2024/01/24 09:04:33;;;;;;;32.83;8.52;;;13.80;75.00;;;;;;5037491;28;20477;-77
2024/01/24 09:06:59;;;;;;;31.63;8.30;;;13.40;47.60;;;;;;5052881;28;20040;-75
2024/01/24 09:09:25;;;;;;;36.00;8.13;;;13.40;61.90;;;;;;5091567;28;20569;-76
2024/01/24 09:11:51;;;;;;;31.98;7.80;;;13.70;46.30;;;;;;5066119;28;20080;-76
2024/01/24 09:14:18;;;;;;;26.08;7.05;;;13.80;46.60;;;;;;5078669;28;20114;-76
2024/01/24 09:16:44;;;;;;;32.85;9.73;;;13.50;77.70;;;;;;5069935;28;20041;-77
2024/01/24 09:19:09;;;;;;;27.20;7.53;;;13.50;52.90;;;;;;5053631;28;20032;-81
2024/01/24 09:21:36;;;;;;;28.92;8.82;;;13.70;75.20;;;;;;5054866;28;20044;-80
2024/01/24 09:24:02;;;;;;;33.22;9.13;;;13.60;59.40;;;;;;5022180;28;20040;-77
2024/01/24 09:26:28;;;;;;;32.38;7.50;;;13.80;29.10;;;;;;5055312;28;20045;-77
2024/01/24 09:28:54;;;;;;;27.10;7.57;;;14.00;23.50;;;;;;5052760;28;20041;-79
2024/01/24 09:31:20;;;;;;;33.20;8.27;;;14.30;22.50;;;;;;5033818;28;20394;-77
2024/01/24 09:33:46;;;;;;;25.52;6.95;;;14.30;6.80;;;;;;5035962;28;20037;-77
2024/01/24 09:36:13;;;;;;;33.50;7.90;;;14.60;5.30;;;;;;5031247;28;20350;-79
2024/01/24 09:38:42;;;;;;;28.30;7.85;;;14.50;1.00;;;;;;5036971;28;20048;-80
2024/01/24 09:41:18;;;;;;;29.70;6.97;;;14.60;1.00;;;;;;5053507;28;20039;-79
2024/01/24 09:43:45;;;;;;;30.60;7.57;;;14.60;1.00;;;;;;5062165;28;20133;-79
2024/01/24 09:46:18;;;;;;;32.53;7.57;;;14.50;1.00;;;;;;5035043;28;20199;-79
2024/01/24 09:48:45;;;;;;;29.67;7.45;;;14.70;1.00;;;;;;5067504;28;20525;-80
2024/01/24 09:51:13;;;;;;;25.88;5.78;;;14.70;1.00;;;;;;5044154;28;20056;-81
2024/01/24 09:53:41;;;;;;;22.02;6.30;;;14.60;1.00;;;;;;5047376;28;20127;-77
2024/01/24 09:56:08;;;;;;;33.45;7.15;;;14.40;1.00;;;;;;5063192;28;20043;-77
2024/01/24 09:58:33;;;;;;;30.05;7.10;;;14.60;1.00;;;;;;5038947;28;20037;-77
2024/01/24 10:01:02;;;;;;;31.08;7.75;;;14.60;1.00;;;;;;5067935;28;20501;-78
2024/01/24 10:03:29;;;;;;;29.92;7.18;;;14.40;1.00;;;;;;5068484;28;20098;-80
2024/01/24 10:05:56;;;;;;;30.73;6.70;;;14.60;1.00;;;;;;5057134;28;20037;-81
2024/01/24 10:08:22;;;;;;;31.50;6.90;;;15.00;1.00;;;;;;5047159;28;20456;-77
2024/01/24 10:10:48;;;;;;;34.22;7.13;;;14.70;1.00;;;;;;5041513;28;20084;-82
2024/01/24 10:13:13;;;;;;;25.88;6.55;;;14.60;1.00;;;;;;5061654;28;20082;-79
2024/01/24 10:15:39;;;;;;;28.52;7.03;;;14.30;1.00;;;;;;5045843;28;20038;-78
2024/01/24 10:18:06;;;;;;;27.85;7.10;;;14.50;1.00;;;;;;5061926;28;20120;-82
2024/01/24 10:20:32;;;;;;;23.83;6.53;;;14.50;1.00;;;;;;5073243;28;20040;-79
2024/01/24 10:22:59;;;;;;;26.30;7.03;;;14.90;1.00;;;;;;5035980;28;20507;-79
2024/01/24 10:25:25;;;;;;;25.77;7.30;;;14.90;1.00;;;;;;5036412;28;20044;-81
2024/01/24 10:27:50;;;;;;;26.02;6.05;;;14.90;1.00;;;;;;5047480;28;20045;-79
2024/01/24 10:30:16;;;;;;;21.90;6.20;;;15.20;1.00;;;;;;5048621;28;20046;-79
2024/01/24 10:32:52;;;;;;;32.08;7.00;;;14.70;1.00;;;;;;5048538;28;20055;-80
2024/01/24 10:35:17;;;;;;;25.73;6.22;;;14.60;1.00;;;;;;5052380;28;20113;-78
2024/01/24 10:37:44;;;;;;;26.80;7.65;;;14.50;1.00;;;;;;5052862;28;20392;-78
2024/01/24 10:40:14;;;;;;;27.70;6.22;;;14.30;1.00;;;;;;5032535;28;20041;-81
2024/01/24 10:42:42;;;;;;;28.10;8.23;;;14.30;1.00;;;;;;5050331;28;20037;-80
2024/01/24 10:45:08;;;;;;;26.67;7.50;;;14.30;1.00;;;;;;5051034;28;20698;-83
2024/01/24 10:47:34;;;;;;;25.85;7.15;;;14.40;1.00;;;;;;5036601;28;20033;-80
2024/01/24 10:50:08;;;;;;;30.05;7.53;;;14.10;1.00;;;;;;5056428;28;20038;-80
2024/01/24 10:52:35;;;;;;;28.40;6.35;;;14.30;1.00;;;;;;5073804;28;20112;-78
2024/01/24 10:55:04;;;;;;;29.35;7.18;;;14.30;1.00;;;;;;5045709;28;20045;-79
2024/01/24 10:57:34;;;;;;;26.63;7.07;;;14.10;1.00;;;;;;5031769;28;20481;-77
2024/01/24 11:00:05;;;;;;;25.85;6.40;;;14.20;1.00;;;;;;5033573;28;20043;-76
2024/01/24 11:02:32;;;;;;;29.25;7.40;;;14.20;1.00;;;;;;5036988;28;20048;-82
2024/01/24 11:05:02;;;;;;;29.00;7.05;;;14.10;1.00;;;;;;5023098;28;20037;-77
2024/01/24 11:07:35;;;;;;;26.05;6.65;;;14.20;1.00;;;;;;5041367;28;20059;-80
2024/01/24 11:10:12;;;;;;;29.17;7.93;;;14.20;1.00;;;;;;5050687;28;20041;-79
2024/01/24 11:12:38;;;;;;;28.55;7.85;;;13.90;1.00;;;;;;5052878;28;20036;-78
2024/01/24 11:15:08;;;;;;;24.85;7.20;;;14.20;1.00;;;;;;5040995;28;20044;-77
2024/01/24 11:17:34;;;;;;;27.55;7.50;;;14.10;1.00;;;;;;5052559;28;20486;-82
2024/01/24 11:20:07;;;;;;;27.90;6.85;;;14.20;1.00;;;;;;5054319;28;20118;-76
2024/01/24 11:22:34;;;;;;;31.45;7.35;;;14.20;1.00;;;;;;5054302;28;20040;-77
2024/01/24 11:24:59;;;;;;;28.02;6.53;;;14.10;1.00;;;;;;5037435;28;20096;-78
2024/01/24 11:27:35;;;;;;;26.30;7.18;;;14.20;1.00;;;;;;5040538;28;20117;-76
2024/01/24 11:30:06;;;;;;;27.27;7.05;;;14.20;1.00;;;;;;5041185;28;20040;-77
2024/01/24 11:32:44;;;;;;;27.90;7.40;;;14.00;1.00;;;;;;5029943;28;20475;-78
2024/01/24 11:35:26;;;;;;;26.77;7.25;;;14.20;1.00;;;;;;5090286;28;20123;-78
2024/01/24 11:38:16;;;;;;;26.73;7.78;;;14.10;1.00;;;;;;5041127;28;20056;-76
2024/01/24 11:40:47;;;;;;;27.35;7.13;;;14.10;3.00;;;;;;5032456;28;20148;-76
2024/01/24 11:43:27;;;;;;;23.90;6.40;;;13.90;1.00;;;;;;5037166;28;20070;-81
2024/01/24 11:46:04;;;;;;;27.38;6.70;;;14.00;1.00;;;;;;5052379;28;20044;-80
2024/01/24 11:48:31;;;;;;;27.10;7.10;;;14.00;1.00;;;;;;5048964;28;20052;-77
2024/01/24 11:50:58;;;;;;;24.15;6.75;;;14.10;1.00;;;;;;5036885;28;21679;-76
2024/01/24 11:53:25;;;;;;;33.45;7.82;;;13.90;1.00;;;;;;5056354;28;20048;-80
2024/01/24 11:55:59;;;;;;;30.13;7.93;;;13.90;1.00;;;;;;5057576;28;20095;-75
2024/01/24 11:58:26;;;;;;;23.70;6.23;;;14.00;5.50;;;;;;5063417;28;20037;-78
2024/01/24 12:00:54;;;;;;;30.08;7.70;;;14.00;4.00;;;;;;5042569;28;20287;-78
2024/01/24 12:03:20;;;;;;;31.77;7.85;;;13.80;1.00;;;;;;5044940;28;20047;-81
2024/01/24 12:05:46;;;;;;;28.35;7.35;;;13.80;1.00;;;;;;5032926;28;20063;-79
2024/01/24 12:08:12;;;;;;;35.47;8.45;;;14.00;1.00;;;;;;5045061;28;20040;-77
2024/01/24 12:10:41;;;;;;;24.05;6.32;;;13.90;1.00;;;;;;5028898;28;20179;-78
2024/01/24 12:13:08;;;;;;;30.83;8.25;;;13.80;5.30;;;;;;5034774;28;20040;-78
2024/01/24 12:15:34;;;;;;;30.48;6.72;;;13.90;8.70;;;;;;5040318;28;20037;-78
2024/01/24 12:18:09;;;;;;;25.00;6.53;;;13.80;13.00;;;;;;5033504;28;20033;-76
2024/01/24 12:20:35;;;;;;;30.75;7.18;;;13.80;1.00;;;;;;5064812;28;20170;-78
2024/01/24 12:23:02;;;;;;;27.30;7.25;;;13.90;1.00;;;;;;5056813;28;20060;-78
2024/01/24 12:25:28;;;;;;;23.83;5.97;;;14.10;1.00;;;;;;5051633;28;20112;-81
2024/01/24 12:27:56;;;;;;;33.30;8.02;;;14.00;1.00;;;;;;5025050;28;20033;-77
2024/01/24 12:30:22;;;;;;;30.73;7.10;;;14.00;1.00;;;;;;5057465;28;20107;-82
2024/01/24 12:32:48;;;;;;;24.05;6.47;;;14.10;1.00;;;;;;5056713;28;20075;-77
2024/01/24 12:35:16;;;;;;;28.73;7.40;;;14.20;1.00;;;;;;5040099;28;20092;-78
2024/01/24 12:37:42;;;;;;;29.10;7.65;;;14.00;1.00;;;;;;5041375;28;20888;-74